sensor_id;sensor_type;location;lat;lon;timestamp;P1;durP1;ratioP1;P2;durP2;ratioP2
7997;SDS011;4044;49.814;7.828;2024-02-15T00:00:11;10.47;;;8.60;;
7997;SDS011;4044;49.814;7.828;2024-02-15T00:02:37;11.63;;;8.20;;
7997;SDS011;4044;49.814;7.828;2024-02-15T00:05:03;8.10;;;7.20;;
7997;SDS011;4044;49.814;7.828;2024-02-15T00:07:29;10.13;;;7.50;;
7997;SDS011;4044;49.814;7.828;2024-02-15T00:09:55;9.43;;;7.93;;
7997;SDS011;4044;49.814;7.828;2024-02-15T00:12:20;8.27;;;6.77;;
7997;SDS011;4044;49.814;7.828;2024-02-15T00:14:46;8.17;;;7.23;;
7997;SDS011;4044;49.814;7.828;2024-02-15T00:17:11;9.80;;;8.07;;
7997;SDS011;4044;49.814;7.828;2024-02-15T00:19:37;9.50;;;7.13;;
7997;SDS011;4044;49.814;7.828;2024-02-15T00:22:04;8.17;;;7.37;;
7997;SDS011;4044;49.814;7.828;2024-02-15T00:24:30;9.93;;;7.87;;
7997;SDS011;4044;49.814;7.828;2024-02-15T00:26:56;8.83;;;7.03;;
7997;SDS011;4044;49.814;7.828;2024-02-15T00:29:22;10.20;;;7.10;;
7997;SDS011;4044;49.814;7.828;2024-02-15T00:31:47;8.47;;;6.60;;
7997;SDS011;4044;49.814;7.828;2024-02-15T00:34:14;8.17;;;7.17;;
7997;SDS011;4044;49.814;7.828;2024-02-15T00:36:44;8.57;;;6.90;;
7997;SDS011;4044;49.814;7.828;2024-02-15T00:39:10;10.30;;;7.30;;
7997;SDS011;4044;49.814;7.828;2024-02-15T00:41:36;9.33;;;7.30;;
7997;SDS011;4044;49.814;7.828;2024-02-15T00:44:06;11.50;;;7.50;;
7997;SDS011;4044;49.814;7.828;2024-02-15T00:46:33;8.20;;;7.37;;
7997;SDS011;4044;49.814;7.828;2024-02-15T00:48:59;10.53;;;8.57;;
7997;SDS011;4044;49.814;7.828;2024-02-15T00:51:24;12.30;;;8.53;;
7997;SDS011;4044;49.814;7.828;2024-02-15T00:53:50;8.67;;;7.53;;
7997;SDS011;4044;49.814;7.828;2024-02-15T00:56:15;11.63;;;7.70;;
7997;SDS011;4044;49.814;7.828;2024-02-15T00:58:42;10.93;;;7.77;;
7997;SDS011;4044;49.814;7.828;2024-02-15T01:01:08;10.20;;;8.00;;
7997;SDS011;4044;49.814;7.828;2024-02-15T01:03:34;9.47;;;7.70;;
7997;SDS011;4044;49.814;7.828;2024-02-15T01:06:00;9.53;;;7.23;;
7997;SDS011;4044;49.814;7.828;2024-02-15T01:08:26;8.70;;;7.00;;
7997;SDS011;4044;49.814;7.828;2024-02-15T01:10:51;7.67;;;6.97;;
7997;SDS011;4044;49.814;7.828;2024-02-15T01:13:18;8.40;;;7.47;;
7997;SDS011;4044;49.814;7.828;2024-02-15T01:15:44;8.33;;;6.93;;
7997;SDS011;4044;49.814;7.828;2024-02-15T01:18:11;12.80;;;7.63;;
7997;SDS011;4044;49.814;7.828;2024-02-15T01:20:36;9.93;;;7.43;;
7997;SDS011;4044;49.814;7.828;2024-02-15T01:23:02;9.40;;;7.10;;
7997;SDS011;4044;49.814;7.828;2024-02-15T01:25:30;7.47;;;6.60;;
7997;SDS011;4044;49.814;7.828;2024-02-15T01:27:55;8.70;;;7.00;;
7997;SDS011;4044;49.814;7.828;2024-02-15T01:30:21;8.07;;;6.70;;
7997;SDS011;4044;49.814;7.828;2024-02-15T01:32:46;7.93;;;6.60;;
7997;SDS011;4044;49.814;7.828;2024-02-15T01:35:12;10.10;;;6.67;;
7997;SDS011;4044;49.814;7.828;2024-02-15T01:37:38;8.03;;;6.23;;
7997;SDS011;4044;49.814;7.828;2024-02-15T01:40:04;7.20;;;6.37;;
7997;SDS011;4044;49.814;7.828;2024-02-15T01:42:31;7.23;;;5.73;;
7997;SDS011;4044;49.814;7.828;2024-02-15T01:44:57;8.73;;;6.43;;
7997;SDS011;4044;49.814;7.828;2024-02-15T01:47:23;6.73;;;6.03;;
7997;SDS011;4044;49.814;7.828;2024-02-15T01:49:49;8.23;;;6.77;;
7997;SDS011;4044;49.814;7.828;2024-02-15T01:52:17;10.43;;;7.10;;
7997;SDS011;4044;49.814;7.828;2024-02-15T01:54:43;12.53;;;5.90;;
7997;SDS011;4044;49.814;7.828;2024-02-15T01:57:09;9.00;;;6.50;;
7997;SDS011;4044;49.814;7.828;2024-02-15T01:59:35;8.67;;;6.60;;
7997;SDS011;4044;49.814;7.828;2024-02-15T02:02:01;7.70;;;6.03;;
7997;SDS011;4044;49.814;7.828;2024-02-15T02:04:29;13.13;;;8.00;;
7997;SDS011;4044;49.814;7.828;2024-02-15T02:06:56;6.70;;;5.20;;
7997;SDS011;4044;49.814;7.828;2024-02-15T02:09:23;6.30;;;5.67;;
7997;SDS011;4044;49.814;7.828;2024-02-15T02:11:49;7.60;;;5.67;;
7997;SDS011;4044;49.814;7.828;2024-02-15T02:14:15;9.07;;;5.40;;
7997;SDS011;4044;49.814;7.828;2024-02-15T02:16:41;7.83;;;5.50;;
7997;SDS011;4044;49.814;7.828;2024-02-15T02:19:07;7.63;;;5.73;;
7997;SDS011;4044;49.814;7.828;2024-02-15T02:21:34;6.53;;;5.37;;
7997;SDS011;4044;49.814;7.828;2024-02-15T02:24:02;5.90;;;5.40;;
7997;SDS011;4044;49.814;7.828;2024-02-15T02:26:32;7.93;;;5.90;;
7997;SDS011;4044;49.814;7.828;2024-02-15T02:28:59;9.87;;;5.20;;
7997;SDS011;4044;49.814;7.828;2024-02-15T02:31:25;7.57;;;5.37;;
7997;SDS011;4044;49.814;7.828;2024-02-15T02:33:52;7.07;;;5.63;;
7997;SDS011;4044;49.814;7.828;2024-02-15T02:36:19;8.10;;;5.67;;
7997;SDS011;4044;49.814;7.828;2024-02-15T02:38:45;8.47;;;6.70;;
7997;SDS011;4044;49.814;7.828;2024-02-15T02:41:14;8.97;;;6.50;;
7997;SDS011;4044;49.814;7.828;2024-02-15T02:43:40;7.70;;;6.20;;
7997;SDS011;4044;49.814;7.828;2024-02-15T02:46:06;9.83;;;6.20;;
7997;SDS011;4044;49.814;7.828;2024-02-15T02:48:35;7.63;;;5.67;;
7997;SDS011;4044;49.814;7.828;2024-02-15T02:51:01;7.10;;;5.73;;
7997;SDS011;4044;49.814;7.828;2024-02-15T02:53:27;6.00;;;5.37;;
7997;SDS011;4044;49.814;7.828;2024-02-15T02:55:53;7.67;;;5.60;;
7997;SDS011;4044;49.814;7.828;2024-02-15T02:58:21;8.60;;;5.73;;
7997;SDS011;4044;49.814;7.828;2024-02-15T03:00:46;7.70;;;5.47;;
7997;SDS011;4044;49.814;7.828;2024-02-15T03:03:12;10.68;;;5.85;;
7997;SDS011;4044;49.814;7.828;2024-02-15T03:05:37;5.57;;;5.07;;
7997;SDS011;4044;49.814;7.828;2024-02-15T03:08:05;7.83;;;6.50;;
7997;SDS011;4044;49.814;7.828;2024-02-15T03:10:31;6.70;;;6.07;;
7997;SDS011;4044;49.814;7.828;2024-02-15T03:12:56;6.27;;;5.57;;
7997;SDS011;4044;49.814;7.828;2024-02-15T03:15:22;7.00;;;5.80;;
7997;SDS011;4044;49.814;7.828;2024-02-15T03:17:48;8.13;;;5.67;;
7997;SDS011;4044;49.814;7.828;2024-02-15T03:20:13;7.57;;;5.63;;
7997;SDS011;4044;49.814;7.828;2024-02-15T03:22:55;7.03;;;5.60;;
7997;SDS011;4044;49.814;7.828;2024-02-15T03:25:21;7.63;;;5.80;;
7997;SDS011;4044;49.814;7.828;2024-02-15T03:27:53;7.43;;;5.10;;
7997;SDS011;4044;49.814;7.828;2024-02-15T03:30:20;6.70;;;5.37;;
7997;SDS011;4044;49.814;7.828;2024-02-15T03:32:49;6.80;;;5.53;;
7997;SDS011;4044;49.814;7.828;2024-02-15T03:35:16;5.57;;;5.07;;
7997;SDS011;4044;49.814;7.828;2024-02-15T03:37:42;8.10;;;5.53;;
7997;SDS011;4044;49.814;7.828;2024-02-15T03:40:08;7.10;;;5.73;;
7997;SDS011;4044;49.814;7.828;2024-02-15T03:42:34;7.60;;;5.20;;
7997;SDS011;4044;49.814;7.828;2024-02-15T03:45:03;6.10;;;4.80;;
7997;SDS011;4044;49.814;7.828;2024-02-15T03:47:33;6.37;;;5.23;;
7997;SDS011;4044;49.814;7.828;2024-02-15T03:50:00;7.33;;;4.97;;
7997;SDS011;4044;49.814;7.828;2024-02-15T03:52:36;6.70;;;5.47;;
7997;SDS011;4044;49.814;7.828;2024-02-15T03:55:03;7.27;;;4.70;;
7997;SDS011;4044;49.814;7.828;2024-02-15T03:57:29;5.30;;;4.50;;
7997;SDS011;4044;49.814;7.828;2024-02-15T03:59:55;8.10;;;4.43;;
7997;SDS011;4044;49.814;7.828;2024-02-15T04:02:24;6.20;;;4.80;;
7997;SDS011;4044;49.814;7.828;2024-02-15T04:04:54;6.97;;;4.27;;
7997;SDS011;4044;49.814;7.828;2024-02-15T04:07:20;5.20;;;4.70;;
7997;SDS011;4044;49.814;7.828;2024-02-15T04:09:52;7.40;;;4.80;;
7997;SDS011;4044;49.814;7.828;2024-02-15T04:12:17;6.50;;;4.60;;
7997;SDS011;4044;49.814;7.828;2024-02-15T04:14:43;6.27;;;4.33;;
7997;SDS011;4044;49.814;7.828;2024-02-15T04:17:13;5.77;;;4.37;;
7997;SDS011;4044;49.814;7.828;2024-02-15T04:19:40;6.27;;;3.90;;
7997;SDS011;4044;49.814;7.828;2024-02-15T04:22:06;7.10;;;4.63;;
7997;SDS011;4044;49.814;7.828;2024-02-15T04:24:35;4.93;;;4.00;;
7997;SDS011;4044;49.814;7.828;2024-02-15T04:27:04;6.07;;;4.50;;
7997;SDS011;4044;49.814;7.828;2024-02-15T04:29:36;5.83;;;3.83;;
7997;SDS011;4044;49.814;7.828;2024-02-15T04:32:05;7.43;;;4.27;;
7997;SDS011;4044;49.814;7.828;2024-02-15T04:34:34;5.97;;;4.03;;
7997;SDS011;4044;49.814;7.828;2024-02-15T04:37:00;6.53;;;4.18;;
7997;SDS011;4044;49.814;7.828;2024-02-15T04:39:31;4.90;;;3.87;;
7997;SDS011;4044;49.814;7.828;2024-02-15T04:41:57;5.63;;;3.87;;
7997;SDS011;4044;49.814;7.828;2024-02-15T04:44:23;8.20;;;3.67;;
7997;SDS011;4044;49.814;7.828;2024-02-15T04:46:52;5.32;;;3.72;;
7997;SDS011;4044;49.814;7.828;2024-02-15T04:49:18;4.38;;;3.53;;
7997;SDS011;4044;49.814;7.828;2024-02-15T04:51:44;7.68;;;3.70;;
7997;SDS011;4044;49.814;7.828;2024-02-15T04:54:10;7.20;;;4.07;;
7997;SDS011;4044;49.814;7.828;2024-02-15T04:56:39;4.93;;;3.03;;
7997;SDS011;4044;49.814;7.828;2024-02-15T04:59:05;5.23;;;3.80;;
7997;SDS011;4044;49.814;7.828;2024-02-15T05:01:34;4.03;;;3.30;;
7997;SDS011;4044;49.814;7.828;2024-02-15T05:04:00;4.43;;;3.60;;
7997;SDS011;4044;49.814;7.828;2024-02-15T05:06:29;3.60;;;3.30;;
7997;SDS011;4044;49.814;7.828;2024-02-15T05:08:55;4.47;;;3.23;;
7997;SDS011;4044;49.814;7.828;2024-02-15T05:11:21;4.50;;;3.17;;
7997;SDS011;4044;49.814;7.828;2024-02-15T05:13:47;4.27;;;3.50;;
7997;SDS011;4044;49.814;7.828;2024-02-15T05:16:16;6.30;;;3.40;;
7997;SDS011;4044;49.814;7.828;2024-02-15T05:18:42;5.60;;;3.70;;
7997;SDS011;4044;49.814;7.828;2024-02-15T05:21:07;6.07;;;3.30;;
7997;SDS011;4044;49.814;7.828;2024-02-15T05:23:34;6.90;;;3.23;;
7997;SDS011;4044;49.814;7.828;2024-02-15T05:26:01;4.47;;;3.20;;
7997;SDS011;4044;49.814;7.828;2024-02-15T05:28:28;4.87;;;3.40;;
7997;SDS011;4044;49.814;7.828;2024-02-15T05:31:16;5.47;;;3.30;;
7997;SDS011;4044;49.814;7.828;2024-02-15T05:33:48;4.73;;;3.33;;
7997;SDS011;4044;49.814;7.828;2024-02-15T05:36:14;5.20;;;3.10;;
7997;SDS011;4044;49.814;7.828;2024-02-15T05:38:41;5.03;;;3.40;;
7997;SDS011;4044;49.814;7.828;2024-02-15T05:41:10;3.30;;;3.00;;
7997;SDS011;4044;49.814;7.828;2024-02-15T05:43:36;5.20;;;3.17;;
7997;SDS011;4044;49.814;7.828;2024-02-15T05:46:06;4.73;;;3.20;;
7997;SDS011;4044;49.814;7.828;2024-02-15T05:48:32;5.17;;;3.50;;
7997;SDS011;4044;49.814;7.828;2024-02-15T05:51:00;8.00;;;3.40;;
7997;SDS011;4044;49.814;7.828;2024-02-15T05:53:26;3.97;;;3.33;;
7997;SDS011;4044;49.814;7.828;2024-02-15T05:55:52;6.43;;;3.13;;
7997;SDS011;4044;49.814;7.828;2024-02-15T05:58:18;4.80;;;3.43;;
7997;SDS011;4044;49.814;7.828;2024-02-15T06:00:43;6.67;;;2.80;;
7997;SDS011;4044;49.814;7.828;2024-02-15T06:03:09;4.33;;;3.20;;
7997;SDS011;4044;49.814;7.828;2024-02-15T06:05:36;5.27;;;3.10;;
7997;SDS011;4044;49.814;7.828;2024-02-15T06:08:02;3.27;;;2.67;;
7997;SDS011;4044;49.814;7.828;2024-02-15T06:10:27;5.47;;;3.13;;
7997;SDS011;4044;49.814;7.828;2024-02-15T06:12:54;6.57;;;3.23;;
7997;SDS011;4044;49.814;7.828;2024-02-15T06:15:21;4.67;;;3.10;;
7997;SDS011;4044;49.814;7.828;2024-02-15T06:17:46;5.87;;;3.07;;
7997;SDS011;4044;49.814;7.828;2024-02-15T06:20:12;3.57;;;2.70;;
7997;SDS011;4044;49.814;7.828;2024-02-15T06:22:43;5.73;;;2.80;;
7997;SDS011;4044;49.814;7.828;2024-02-15T06:25:09;3.37;;;2.70;;
7997;SDS011;4044;49.814;7.828;2024-02-15T06:27:36;5.93;;;3.40;;
7997;SDS011;4044;49.814;7.828;2024-02-15T06:30:05;5.03;;;3.03;;
7997;SDS011;4044;49.814;7.828;2024-02-15T06:32:50;4.53;;;2.93;;
7997;SDS011;4044;49.814;7.828;2024-02-15T06:35:34;7.57;;;3.50;;
7997;SDS011;4044;49.814;7.828;2024-02-15T06:38:18;5.80;;;3.70;;
7997;SDS011;4044;49.814;7.828;2024-02-15T06:41:02;4.83;;;3.43;;
7997;SDS011;4044;49.814;7.828;2024-02-15T06:43:28;5.20;;;3.33;;
7997;SDS011;4044;49.814;7.828;2024-02-15T06:45:53;7.00;;;3.60;;
7997;SDS011;4044;49.814;7.828;2024-02-15T06:48:20;3.80;;;3.30;;
7997;SDS011;4044;49.814;7.828;2024-02-15T06:50:48;4.60;;;3.40;;
7997;SDS011;4044;49.814;7.828;2024-02-15T06:53:13;6.37;;;3.50;;
7997;SDS011;4044;49.814;7.828;2024-02-15T06:55:39;8.23;;;3.47;;
7997;SDS011;4044;49.814;7.828;2024-02-15T06:58:05;4.40;;;3.60;;
7997;SDS011;4044;49.814;7.828;2024-02-15T07:00:31;4.80;;;3.13;;
7997;SDS011;4044;49.814;7.828;2024-02-15T07:02:57;7.10;;;3.10;;
7997;SDS011;4044;49.814;7.828;2024-02-15T07:05:22;3.57;;;3.27;;
7997;SDS011;4044;49.814;7.828;2024-02-15T07:07:48;4.13;;;3.20;;
7997;SDS011;4044;49.814;7.828;2024-02-15T07:10:14;5.40;;;4.03;;
7997;SDS011;4044;49.814;7.828;2024-02-15T07:12:41;7.50;;;4.67;;
7997;SDS011;4044;49.814;7.828;2024-02-15T07:15:09;8.40;;;4.53;;
7997;SDS011;4044;49.814;7.828;2024-02-15T07:17:35;8.23;;;5.60;;
7997;SDS011;4044;49.814;7.828;2024-02-15T07:20:02;7.80;;;4.87;;
7997;SDS011;4044;49.814;7.828;2024-02-15T07:22:30;7.47;;;5.13;;
7997;SDS011;4044;49.814;7.828;2024-02-15T07:24:56;9.83;;;5.37;;
7997;SDS011;4044;49.814;7.828;2024-02-15T07:27:22;7.57;;;4.30;;
7997;SDS011;4044;49.814;7.828;2024-02-15T07:29:50;7.73;;;4.47;;
7997;SDS011;4044;49.814;7.828;2024-02-15T07:32:16;6.40;;;3.80;;
7997;SDS011;4044;49.814;7.828;2024-02-15T07:34:42;6.20;;;3.70;;
7997;SDS011;4044;49.814;7.828;2024-02-15T07:37:08;5.73;;;4.43;;
7997;SDS011;4044;49.814;7.828;2024-02-15T07:39:34;9.10;;;5.67;;
7997;SDS011;4044;49.814;7.828;2024-02-15T07:42:01;6.70;;;4.37;;
7997;SDS011;4044;49.814;7.828;2024-02-15T07:44:29;6.17;;;3.93;;
7997;SDS011;4044;49.814;7.828;2024-02-15T07:46:57;7.67;;;4.33;;
7997;SDS011;4044;49.814;7.828;2024-02-15T07:49:25;6.33;;;4.10;;
7997;SDS011;4044;49.814;7.828;2024-02-15T07:51:51;6.47;;;3.77;;
7997;SDS011;4044;49.814;7.828;2024-02-15T07:54:18;6.17;;;4.10;;
7997;SDS011;4044;49.814;7.828;2024-02-15T07:56:47;3.80;;;3.33;;
7997;SDS011;4044;49.814;7.828;2024-02-15T07:59:13;5.63;;;3.93;;
7997;SDS011;4044;49.814;7.828;2024-02-15T08:01:41;6.13;;;3.63;;
7997;SDS011;4044;49.814;7.828;2024-02-15T08:04:08;8.27;;;3.90;;
7997;SDS011;4044;49.814;7.828;2024-02-15T08:06:33;6.60;;;4.23;;
7997;SDS011;4044;49.814;7.828;2024-02-15T08:09:01;6.10;;;3.97;;
7997;SDS011;4044;49.814;7.828;2024-02-15T08:11:29;9.53;;;4.20;;
7997;SDS011;4044;49.814;7.828;2024-02-15T08:13:55;7.07;;;3.60;;
7997;SDS011;4044;49.814;7.828;2024-02-15T08:16:24;6.53;;;4.00;;
7997;SDS011;4044;49.814;7.828;2024-02-15T08:18:52;5.20;;;4.43;;
7997;SDS011;4044;49.814;7.828;2024-02-15T08:21:30;6.43;;;4.33;;
7997;SDS011;4044;49.814;7.828;2024-02-15T08:24:01;6.70;;;4.40;;
7997;SDS011;4044;49.814;7.828;2024-02-15T08:26:33;4.73;;;3.93;;
7997;SDS011;4044;49.814;7.828;2024-02-15T08:29:03;5.73;;;4.00;;
7997;SDS011;4044;49.814;7.828;2024-02-15T08:31:28;6.63;;;4.20;;
7997;SDS011;4044;49.814;7.828;2024-02-15T08:33:56;5.27;;;4.13;;
7997;SDS011;4044;49.814;7.828;2024-02-15T08:36:22;6.93;;;4.47;;
7997;SDS011;4044;49.814;7.828;2024-02-15T08:38:48;4.87;;;4.07;;
7997;SDS011;4044;49.814;7.828;2024-02-15T08:41:15;6.37;;;4.20;;
7997;SDS011;4044;49.814;7.828;2024-02-15T08:43:43;6.83;;;4.23;;
7997;SDS011;4044;49.814;7.828;2024-02-15T08:46:09;8.03;;;4.50;;
7997;SDS011;4044;49.814;7.828;2024-02-15T08:48:35;5.70;;;4.23;;
7997;SDS011;4044;49.814;7.828;2024-02-15T08:51:01;5.73;;;4.67;;
7997;SDS011;4044;49.814;7.828;2024-02-15T08:53:27;5.90;;;4.73;;
7997;SDS011;4044;49.814;7.828;2024-02-15T08:55:52;6.07;;;4.43;;
7997;SDS011;4044;49.814;7.828;2024-02-15T08:58:18;6.07;;;4.33;;
7997;SDS011;4044;49.814;7.828;2024-02-15T09:00:46;7.30;;;4.90;;
7997;SDS011;4044;49.814;7.828;2024-02-15T09:03:11;5.93;;;4.63;;
7997;SDS011;4044;49.814;7.828;2024-02-15T09:05:38;6.83;;;4.50;;
7997;SDS011;4044;49.814;7.828;2024-02-15T09:08:05;5.10;;;3.90;;
7997;SDS011;4044;49.814;7.828;2024-02-15T09:10:31;4.83;;;3.60;;
7997;SDS011;4044;49.814;7.828;2024-02-15T09:12:57;8.13;;;4.23;;
7997;SDS011;4044;49.814;7.828;2024-02-15T09:15:23;5.27;;;3.80;;
7997;SDS011;4044;49.814;7.828;2024-02-15T09:17:48;4.17;;;3.53;;
7997;SDS011;4044;49.814;7.828;2024-02-15T09:20:14;5.50;;;3.70;;
7997;SDS011;4044;49.814;7.828;2024-02-15T09:25:16;4.95;;;3.35;;
7997;SDS011;4044;49.814;7.828;2024-02-15T09:27:42;4.60;;;3.00;;
7997;SDS011;4044;49.814;7.828;2024-02-15T09:30:09;4.10;;;2.80;;
7997;SDS011;4044;49.814;7.828;2024-02-15T09:32:41;3.13;;;2.83;;
7997;SDS011;4044;49.814;7.828;2024-02-15T09:35:07;3.75;;;2.95;;
7997;SDS011;4044;49.814;7.828;2024-02-15T09:37:34;4.53;;;2.47;;
7997;SDS011;4044;49.814;7.828;2024-02-15T09:40:09;3.78;;;2.63;;
7997;SDS011;4044;49.814;7.828;2024-02-15T09:42:36;3.20;;;2.35;;
7997;SDS011;4044;49.814;7.828;2024-02-15T09:45:04;3.25;;;2.30;;
7997;SDS011;4044;49.814;7.828;2024-02-15T09:47:36;3.35;;;2.50;;
7997;SDS011;4044;49.814;7.828;2024-02-15T09:50:06;4.70;;;2.20;;
7997;SDS011;4044;49.814;7.828;2024-02-15T09:52:32;2.58;;;2.03;;
7997;SDS011;4044;49.814;7.828;2024-02-15T09:55:02;3.35;;;2.40;;
7997;SDS011;4044;49.814;7.828;2024-02-15T09:57:29;3.20;;;2.65;;
7997;SDS011;4044;49.814;7.828;2024-02-15T09:59:57;3.95;;;2.47;;
7997;SDS011;4044;49.814;7.828;2024-02-15T10:02:24;4.25;;;2.42;;
7997;SDS011;4044;49.814;7.828;2024-02-15T10:04:51;2.65;;;2.25;;
7997;SDS011;4044;49.814;7.828;2024-02-15T10:07:18;3.83;;;2.22;;
7997;SDS011;4044;49.814;7.828;2024-02-15T10:09:44;2.67;;;2.38;;
7997;SDS011;4044;49.814;7.828;2024-02-15T10:12:09;3.60;;;2.10;;
7997;SDS011;4044;49.814;7.828;2024-02-15T10:14:35;5.05;;;2.20;;
7997;SDS011;4044;49.814;7.828;2024-02-15T10:17:07;3.83;;;1.90;;
7997;SDS011;4044;49.814;7.828;2024-02-15T10:19:37;2.40;;;1.70;;
7997;SDS011;4044;49.814;7.828;2024-02-15T10:22:06;3.15;;;2.08;;
7997;SDS011;4044;49.814;7.828;2024-02-15T10:24:33;2.80;;;1.80;;
7997;SDS011;4044;49.814;7.828;2024-02-15T10:27:00;3.20;;;1.90;;
7997;SDS011;4044;49.814;7.828;2024-02-15T10:29:29;3.85;;;1.90;;
7997;SDS011;4044;49.814;7.828;2024-02-15T10:32:00;3.88;;;1.90;;
7997;SDS011;4044;49.814;7.828;2024-02-15T10:34:27;2.63;;;1.70;;
7997;SDS011;4044;49.814;7.828;2024-02-15T10:37:12;3.10;;;2.28;;
7997;SDS011;4044;49.814;7.828;2024-02-15T10:39:39;2.55;;;2.08;;
7997;SDS011;4044;49.814;7.828;2024-02-15T10:42:06;3.28;;;1.77;;
7997;SDS011;4044;49.814;7.828;2024-02-15T10:44:32;4.22;;;1.88;;
7997;SDS011;4044;49.814;7.828;2024-02-15T10:47:00;4.10;;;2.10;;
7997;SDS011;4044;49.814;7.828;2024-02-15T10:49:31;2.75;;;1.50;;
7997;SDS011;4044;49.814;7.828;2024-02-15T10:51:58;3.33;;;1.60;;
7997;SDS011;4044;49.814;7.828;2024-02-15T10:57:03;2.50;;;1.60;;
7997;SDS011;4044;49.814;7.828;2024-02-15T10:59:32;2.53;;;1.40;;
7997;SDS011;4044;49.814;7.828;2024-02-15T11:02:02;3.05;;;1.52;;
7997;SDS011;4044;49.814;7.828;2024-02-15T11:04:48;3.03;;;1.90;;
7997;SDS011;4044;49.814;7.828;2024-02-15T11:07:23;5.32;;;1.88;;
7997;SDS011;4044;49.814;7.828;2024-02-15T11:09:52;1.90;;;1.65;;
7997;SDS011;4044;49.814;7.828;2024-02-15T11:12:18;1.65;;;1.55;;
7997;SDS011;4044;49.814;7.828;2024-02-15T11:14:45;3.70;;;1.77;;
7997;SDS011;4044;49.814;7.828;2024-02-15T11:17:10;4.38;;;1.77;;
7997;SDS011;4044;49.814;7.828;2024-02-15T11:22:11;2.00;;;1.70;;
7997;SDS011;4044;49.814;7.828;2024-02-15T11:24:50;2.15;;;1.55;;
7997;SDS011;4044;49.814;7.828;2024-02-15T11:27:26;3.13;;;1.60;;
7997;SDS011;4044;49.814;7.828;2024-02-15T11:29:58;1.95;;;1.42;;
7997;SDS011;4044;49.814;7.828;2024-02-15T11:32:36;2.50;;;1.63;;
7997;SDS011;4044;49.814;7.828;2024-02-15T11:35:09;3.03;;;1.60;;
7997;SDS011;4044;49.814;7.828;2024-02-15T11:40:15;1.50;;;1.40;;
7997;SDS011;4044;49.814;7.828;2024-02-15T11:42:42;2.88;;;1.27;;
7997;SDS011;4044;49.814;7.828;2024-02-15T11:45:08;3.38;;;1.70;;
7997;SDS011;4044;49.814;7.828;2024-02-15T11:47:36;2.17;;;1.50;;
7997;SDS011;4044;49.814;7.828;2024-02-15T11:50:04;1.67;;;1.40;;
7997;SDS011;4044;49.814;7.828;2024-02-15T11:52:33;2.22;;;1.20;;
7997;SDS011;4044;49.814;7.828;2024-02-15T11:55:05;3.85;;;1.50;;
7997;SDS011;4044;49.814;7.828;2024-02-15T11:57:38;4.97;;;2.60;;
7997;SDS011;4044;49.814;7.828;2024-02-15T12:00:22;3.35;;;2.17;;
7997;SDS011;4044;49.814;7.828;2024-02-15T12:03:08;3.97;;;2.33;;
7997;SDS011;4044;49.814;7.828;2024-02-15T12:05:53;3.13;;;1.90;;
7997;SDS011;4044;49.814;7.828;2024-02-15T12:08:38;3.78;;;2.00;;
7997;SDS011;4044;49.814;7.828;2024-02-15T12:11:23;4.07;;;1.92;;
7997;SDS011;4044;49.814;7.828;2024-02-15T12:14:11;5.78;;;2.15;;
7997;SDS011;4044;49.814;7.828;2024-02-15T12:19:48;4.82;;;2.25;;
7997;SDS011;4044;49.814;7.828;2024-02-15T12:22:16;4.18;;;2.30;;
7997;SDS011;4044;49.814;7.828;2024-02-15T12:24:55;2.42;;;2.22;;
7997;SDS011;4044;49.814;7.828;2024-02-15T12:27:22;2.75;;;1.80;;
7997;SDS011;4044;49.814;7.828;2024-02-15T12:29:52;3.17;;;2.00;;
7997;SDS011;4044;49.814;7.828;2024-02-15T12:32:22;4.03;;;1.80;;
7997;SDS011;4044;49.814;7.828;2024-02-15T12:34:49;3.55;;;2.35;;
7997;SDS011;4044;49.814;7.828;2024-02-15T12:37:17;4.95;;;2.13;;
7997;SDS011;4044;49.814;7.828;2024-02-15T12:39:45;3.90;;;1.95;;
7997;SDS011;4044;49.814;7.828;2024-02-15T12:42:12;3.80;;;1.88;;
7997;SDS011;4044;49.814;7.828;2024-02-15T12:44:41;5.97;;;2.03;;
7997;SDS011;4044;49.814;7.828;2024-02-15T12:47:16;2.83;;;1.95;;
7997;SDS011;4044;49.814;7.828;2024-02-15T12:49:52;3.58;;;2.38;;
7997;SDS011;4044;49.814;7.828;2024-02-15T12:52:37;5.45;;;3.00;;
7997;SDS011;4044;49.814;7.828;2024-02-15T12:55:13;3.83;;;2.83;;
7997;SDS011;4044;49.814;7.828;2024-02-15T12:57:42;4.28;;;2.83;;
7997;SDS011;4044;49.814;7.828;2024-02-15T13:00:14;5.55;;;3.15;;
7997;SDS011;4044;49.814;7.828;2024-02-15T13:02:43;4.53;;;2.42;;
7997;SDS011;4044;49.814;7.828;2024-02-15T13:05:14;2.53;;;2.33;;
7997;SDS011;4044;49.814;7.828;2024-02-15T13:07:43;4.65;;;2.60;;
7997;SDS011;4044;49.814;7.828;2024-02-15T13:10:10;3.33;;;2.65;;
7997;SDS011;4044;49.814;7.828;2024-02-15T13:12:36;3.63;;;2.20;;
7997;SDS011;4044;49.814;7.828;2024-02-15T13:15:03;2.55;;;1.90;;
7997;SDS011;4044;49.814;7.828;2024-02-15T13:17:31;5.28;;;2.20;;
7997;SDS011;4044;49.814;7.828;2024-02-15T13:19:56;4.28;;;2.72;;
7997;SDS011;4044;49.814;7.828;2024-02-15T13:22:28;5.25;;;2.85;;
7997;SDS011;4044;49.814;7.828;2024-02-15T13:24:53;6.38;;;3.00;;
7997;SDS011;4044;49.814;7.828;2024-02-15T13:27:20;6.82;;;3.20;;
7997;SDS011;4044;49.814;7.828;2024-02-15T13:29:46;5.75;;;2.75;;
7997;SDS011;4044;49.814;7.828;2024-02-15T13:32:12;4.85;;;2.63;;
7997;SDS011;4044;49.814;7.828;2024-02-15T13:34:39;6.38;;;2.83;;
7997;SDS011;4044;49.814;7.828;2024-02-15T13:37:05;5.55;;;3.00;;
7997;SDS011;4044;49.814;7.828;2024-02-15T13:39:30;5.00;;;3.08;;
7997;SDS011;4044;49.814;7.828;2024-02-15T13:41:58;6.28;;;3.15;;
7997;SDS011;4044;49.814;7.828;2024-02-15T13:44:26;4.72;;;3.22;;
7997;SDS011;4044;49.814;7.828;2024-02-15T13:46:52;7.35;;;3.63;;
7997;SDS011;4044;49.814;7.828;2024-02-15T13:49:20;7.43;;;3.60;;
7997;SDS011;4044;49.814;7.828;2024-02-15T13:51:46;4.60;;;3.50;;
7997;SDS011;4044;49.814;7.828;2024-02-15T13:54:12;6.15;;;2.95;;
7997;SDS011;4044;49.814;7.828;2024-02-15T13:56:37;4.50;;;3.03;;
7997;SDS011;4044;49.814;7.828;2024-02-15T13:59:04;5.15;;;3.38;;
7997;SDS011;4044;49.814;7.828;2024-02-15T14:01:30;9.27;;;4.22;;
7997;SDS011;4044;49.814;7.828;2024-02-15T14:03:56;5.25;;;3.90;;
7997;SDS011;4044;49.814;7.828;2024-02-15T14:06:21;3.65;;;3.00;;
7997;SDS011;4044;49.814;7.828;2024-02-15T14:08:47;7.95;;;3.65;;
7997;SDS011;4044;49.814;7.828;2024-02-15T14:11:12;6.43;;;4.38;;
7997;SDS011;4044;49.814;7.828;2024-02-15T14:13:38;5.65;;;3.90;;
7997;SDS011;4044;49.814;7.828;2024-02-15T14:16:04;4.93;;;2.80;;
7997;SDS011;4044;49.814;7.828;2024-02-15T14:18:33;3.72;;;2.53;;
7997;SDS011;4044;49.814;7.828;2024-02-15T14:20:59;4.53;;;2.38;;
7997;SDS011;4044;49.814;7.828;2024-02-15T14:23:25;4.53;;;2.42;;
7997;SDS011;4044;49.814;7.828;2024-02-15T14:25:52;3.88;;;2.40;;
7997;SDS011;4044;49.814;7.828;2024-02-15T14:28:18;4.38;;;2.25;;
7997;SDS011;4044;49.814;7.828;2024-02-15T14:30:44;5.97;;;2.53;;
7997;SDS011;4044;49.814;7.828;2024-02-15T14:33:28;5.75;;;2.60;;
7997;SDS011;4044;49.814;7.828;2024-02-15T14:35:54;2.50;;;2.28;;
7997;SDS011;4044;49.814;7.828;2024-02-15T14:38:20;4.22;;;2.22;;
7997;SDS011;4044;49.814;7.828;2024-02-15T14:40:47;4.32;;;2.10;;
7997;SDS011;4044;49.814;7.828;2024-02-15T14:43:21;3.47;;;1.85;;
7997;SDS011;4044;49.814;7.828;2024-02-15T14:45:47;5.13;;;1.90;;
7997;SDS011;4044;49.814;7.828;2024-02-15T14:48:13;2.58;;;1.80;;
7997;SDS011;4044;49.814;7.828;2024-02-15T14:50:42;2.75;;;1.83;;
7997;SDS011;4044;49.814;7.828;2024-02-15T14:53:09;6.03;;;1.90;;
7997;SDS011;4044;49.814;7.828;2024-02-15T14:55:38;6.50;;;2.22;;
7997;SDS011;4044;49.814;7.828;2024-02-15T14:58:10;2.45;;;1.98;;
7997;SDS011;4044;49.814;7.828;2024-02-15T15:00:37;4.78;;;2.00;;
7997;SDS011;4044;49.814;7.828;2024-02-15T15:03:04;2.60;;;2.05;;
7997;SDS011;4044;49.814;7.828;2024-02-15T15:05:30;2.95;;;1.70;;
7997;SDS011;4044;49.814;7.828;2024-02-15T15:08:14;2.13;;;1.60;;
7997;SDS011;4044;49.814;7.828;2024-02-15T15:10:58;4.43;;;1.85;;
7997;SDS011;4044;49.814;7.828;2024-02-15T15:13:42;1.75;;;1.30;;
7997;SDS011;4044;49.814;7.828;2024-02-15T15:16:08;2.65;;;1.65;;
7997;SDS011;4044;49.814;7.828;2024-02-15T15:18:39;5.65;;;1.63;;
7997;SDS011;4044;49.814;7.828;2024-02-15T15:21:04;3.33;;;1.75;;
7997;SDS011;4044;49.814;7.828;2024-02-15T15:23:30;2.92;;;1.58;;
7997;SDS011;4044;49.814;7.828;2024-02-15T15:25:56;2.50;;;1.73;;
7997;SDS011;4044;49.814;7.828;2024-02-15T15:28:22;3.05;;;1.70;;
7997;SDS011;4044;49.814;7.828;2024-02-15T15:30:48;2.47;;;1.70;;
7997;SDS011;4044;49.814;7.828;2024-02-15T15:33:15;3.22;;;1.73;;